createdAt,value
2022-08-09T00:00:04.574Z,2.97
2022-08-09T00:02:33.953Z,3.13
2022-08-09T00:06:15.962Z,3.53
2022-08-09T00:07:49.435Z,3.72
2022-08-09T00:10:21.577Z,3.72
2022-08-09T00:12:53.069Z,3.72
2022-08-09T00:15:26.677Z,3.67
2022-08-09T00:18:07.477Z,3.33
2022-08-09T00:20:42.611Z,3.13
2022-08-09T00:23:56.446Z,3.72
2022-08-09T00:26:05.466Z,3.53
2022-08-09T00:28:34.518Z,3.67
2022-08-09T00:31:02.421Z,3.40
2022-08-09T00:33:51.084Z,3.10
2022-08-09T00:36:19.383Z,3.47
2022-08-09T00:38:46.894Z,3.67
2022-08-09T00:44:13.075Z,3.67
2022-08-09T00:44:15.996Z,3.70
2022-08-09T00:46:57.690Z,3.65
2022-08-09T00:49:31.081Z,3.35
2022-08-09T00:51:58.119Z,3.45
2022-08-09T00:54:36.335Z,3.60
2022-08-09T00:57:10.471Z,3.38
2022-08-09T00:59:40.983Z,3.33
2022-08-09T01:02:15.434Z,3.65
2022-08-09T01:04:52.923Z,3.83
2022-08-09T01:07:37.662Z,3.55
2022-08-09T01:10:15.698Z,3.63
2022-08-09T01:12:50.828Z,3.55
2022-08-09T01:15:24.005Z,3.85
2022-08-09T01:17:57.698Z,4.00
2022-08-09T01:20:34.622Z,3.97
2022-08-09T01:24:03.597Z,3.55
2022-08-09T01:26:15.520Z,3.97
2022-08-09T01:28:47.179Z,3.67
2022-08-09T01:32:30.623Z,3.30
2022-08-09T01:34:10.470Z,3.20
2022-08-09T01:36:39.903Z,3.55
2022-08-09T01:39:07.274Z,3.63
2022-08-09T01:41:35.963Z,3.28
2022-08-09T01:44:05.548Z,3.42
2022-08-09T01:46:37.198Z,3.38
2022-08-09T01:49:09.974Z,3.58
2022-08-09T01:51:42.753Z,3.72
2022-08-09T01:54:12.587Z,3.45
2022-08-09T01:56:42.103Z,3.88
2022-08-09T01:59:19.395Z,3.35
2022-08-09T02:01:59.442Z,3.67
2022-08-09T02:04:29.823Z,4.20
2022-08-09T02:07:17.779Z,3.60
2022-08-09T02:10:04.155Z,4.13
2022-08-09T02:12:33.337Z,3.83
2022-08-09T02:15:03.188Z,3.90
2022-08-09T02:18:01.673Z,3.63
2022-08-09T02:20:25.223Z,3.47
2022-08-09T02:23:06.028Z,3.70
2022-08-09T02:25:42.649Z,4.00
2022-08-09T02:28:20.377Z,4.63
2022-08-09T02:30:51.741Z,4.10
2022-08-09T02:33:23.310Z,4.30
2022-08-09T02:36:08.227Z,5.13
2022-08-09T02:38:47.761Z,4.63
2022-08-09T02:41:19.181Z,4.25
2022-08-09T02:43:54.763Z,4.47
2022-08-09T02:46:25.439Z,4.30
2022-08-09T02:48:56.401Z,4.32
2022-08-09T02:51:24.278Z,4.68
2022-08-09T02:54:00.786Z,4.45
2022-08-09T02:56:30.342Z,4.45
2022-08-09T02:58:58.572Z,4.45
2022-08-09T03:01:29.621Z,3.83
2022-08-09T03:04:19.242Z,4.10
2022-08-09T03:06:48.815Z,3.78
2022-08-09T03:09:19.561Z,4.72
2022-08-09T03:12:09.758Z,3.90
2022-08-09T03:14:36.720Z,4.18
2022-08-09T03:17:05.702Z,4.03
2022-08-09T03:19:59.481Z,4.07
2022-08-09T03:22:25.414Z,3.85
2022-08-09T03:25:03.339Z,4.32
2022-08-09T03:27:37.239Z,3.78
2022-08-09T03:30:13.191Z,4.07
2022-08-09T03:32:45.610Z,4.03
2022-08-09T03:35:14.984Z,3.90
2022-08-09T03:37:55.709Z,4.00
2022-08-09T03:40:25.480Z,3.88
2022-08-09T03:42:57.908Z,3.90
2022-08-09T03:46:05.338Z,3.42
2022-08-09T03:48:19.047Z,4.10
2022-08-09T03:50:59.085Z,3.78
2022-08-09T03:53:32.219Z,4.03
2022-08-09T03:56:04.920Z,4.55
2022-08-09T03:58:32.450Z,3.30
2022-08-09T04:00:59.934Z,3.63
2022-08-09T04:03:45.886Z,4.40
2022-08-09T04:06:16.665Z,3.88
2022-08-09T04:08:46.672Z,4.47
2022-08-09T04:11:13.666Z,3.80
2022-08-09T04:14:37.484Z,4.53
2022-08-09T04:16:27.548Z,4.30
2022-08-09T04:18:54.926Z,4.10
2022-08-09T04:21:22.172Z,5.47
2022-08-09T04:23:54.110Z,4.45
2022-08-09T04:26:24.484Z,4.38
2022-08-09T04:28:54.062Z,4.70
2022-08-09T04:31:26.348Z,4.03
2022-08-09T04:34:04.950Z,4.72
2022-08-09T04:36:33.755Z,4.30
2022-08-09T04:39:04.116Z,4.70
2022-08-09T04:41:32.882Z,5.05
2022-08-09T04:44:07.137Z,4.00
2022-08-09T04:46:56.745Z,3.72
2022-08-09T04:49:47.707Z,4.35
2022-08-09T04:52:12.380Z,3.97
2022-08-09T04:54:50.800Z,4.20
2022-08-09T04:57:21.526Z,4.10
2022-08-09T04:59:51.810Z,4.13
2022-08-09T05:02:18.951Z,3.90
2022-08-09T05:04:47.702Z,3.85
2022-08-09T05:07:22.268Z,4.43
2022-08-09T05:09:50.226Z,5.32
2022-08-09T05:12:17.278Z,4.80
2022-08-09T05:14:43.987Z,5.05
2022-08-09T05:17:15.374Z,5.03
2022-08-09T05:19:59.084Z,4.53
2022-08-09T05:22:33.245Z,5.20
2022-08-09T05:25:02.866Z,4.60
2022-08-09T05:27:30.276Z,5.18
2022-08-09T05:29:57.898Z,5.03
2022-08-09T05:32:26.004Z,4.28
2022-08-09T05:34:56.996Z,4.90
2022-08-09T05:37:25.493Z,4.13
2022-08-09T05:39:52.769Z,4.32
2022-08-09T05:42:21.550Z,4.40
2022-08-09T05:44:58.037Z,4.60
2022-08-09T05:47:30.323Z,4.30
2022-08-09T05:50:25.926Z,5.07
2022-08-09T05:52:53.595Z,4.13
2022-08-09T05:55:23.918Z,4.50
2022-08-09T05:57:56.792Z,4.72
2022-08-09T06:00:25.677Z,4.13
2022-08-09T06:02:57.020Z,4.43
2022-08-09T06:05:31.006Z,4.32
2022-08-09T06:08:12.122Z,4.60
2022-08-09T06:10:38.888Z,4.25
2022-08-09T06:13:12.239Z,4.68
2022-08-09T06:15:46.887Z,4.55
2022-08-09T06:18:15.811Z,4.38
2022-08-09T06:20:54.408Z,5.10
2022-08-09T06:23:57.301Z,4.65
2022-08-09T06:26:15.137Z,4.20
2022-08-09T06:28:48.951Z,4.72
2022-08-09T06:31:15.760Z,5.07
2022-08-09T06:33:48.931Z,4.38
2022-08-09T06:36:20.050Z,4.78
2022-08-09T06:38:54.952Z,4.70
2022-08-09T06:41:24.161Z,4.60
2022-08-09T06:44:13.638Z,4.18
2022-08-09T06:46:47.412Z,4.40
2022-08-09T06:49:29.101Z,4.40
2022-08-09T06:52:04.752Z,4.05
2022-08-09T06:54:35.303Z,4.55
2022-08-09T06:57:02.062Z,4.13
2022-08-09T07:00:55.352Z,4.35
2022-08-09T07:02:16.761Z,3.83
2022-08-09T07:04:44.734Z,3.60
2022-08-09T07:07:12.136Z,3.90
2022-08-09T07:10:11.525Z,3.42
2022-08-09T07:12:46.339Z,3.45
2022-08-09T07:16:36.709Z,3.33
2022-08-09T07:18:11.973Z,3.53
2022-08-09T07:20:43.369Z,4.05
2022-08-09T07:23:18.712Z,3.20
2022-08-09T07:25:52.620Z,3.67
2022-08-09T07:28:29.738Z,3.88
2022-08-09T07:30:56.561Z,3.33
2022-08-09T07:33:25.764Z,3.40
2022-08-09T07:35:58.013Z,3.28
2022-08-09T07:38:25.668Z,2.95
2022-08-09T07:41:12.079Z,2.95
2022-08-09T07:43:49.606Z,2.85
2022-08-09T07:46:22.489Z,3.15
2022-08-09T07:48:59.380Z,2.75
2022-08-09T07:52:04.386Z,3.60
2022-08-09T07:54:15.131Z,2.83
2022-08-09T07:56:49.349Z,3.20
2022-08-09T07:59:34.695Z,2.40
2022-08-09T08:02:05.384Z,2.45
2022-08-09T08:04:33.044Z,2.75
2022-08-09T08:07:14.866Z,3.15
2022-08-09T08:09:55.115Z,2.70
2022-08-09T08:12:37.222Z,2.78
2022-08-09T08:15:11.800Z,2.47
2022-08-09T08:17:52.940Z,2.72
2022-08-09T08:20:29.078Z,2.50
2022-08-09T08:23:01.345Z,2.60
2022-08-09T08:25:44.781Z,2.88
2022-08-09T08:28:17.989Z,2.30
2022-08-09T08:30:47.572Z,2.85
2022-08-09T08:33:24.104Z,2.70
2022-08-09T08:35:58.213Z,2.50
2022-08-09T08:38:27.994Z,3.00
2022-08-09T08:40:56.102Z,2.78
2022-08-09T08:43:26.507Z,2.63
2022-08-09T08:46:03.695Z,2.78
2022-08-09T08:48:37.612Z,2.97
2022-08-09T08:51:06.535Z,2.45
2022-08-09T08:53:37.219Z,2.95
2022-08-09T08:56:06.653Z,2.83
2022-08-09T08:58:36.236Z,3.10
2022-08-09T09:01:08.832Z,3.03
2022-08-09T09:03:58.339Z,2.42
2022-08-09T09:06:38.954Z,2.58
2022-08-09T09:09:57.844Z,2.63
2022-08-09T09:11:55.770Z,2.58
2022-08-09T09:14:25.047Z,3.03
2022-08-09T09:16:54.540Z,3.00
2022-08-09T09:19:36.990Z,2.22
2022-08-09T09:22:11.741Z,2.40
2022-08-09T09:24:43.470Z,2.67
2022-08-09T09:28:04.010Z,2.60
2022-08-09T09:30:22.727Z,2.40
2022-08-09T09:33:15.524Z,2.50
2022-08-09T09:36:01.361Z,2.20
2022-08-09T09:38:46.249Z,2.25
2022-08-09T09:41:32.582Z,3.28
2022-08-09T09:44:12.821Z,2.35
2022-08-09T09:46:46.124Z,3.08
2022-08-09T09:49:32.289Z,2.50
2022-08-09T09:52:16.368Z,1.95
2022-08-09T09:55:27.576Z,2.63
2022-08-09T09:58:15.832Z,2.40
2022-08-09T10:00:54.076Z,2.60
2022-08-09T10:03:43.904Z,2.20
2022-08-09T10:06:12.595Z,2.80
2022-08-09T10:08:43.253Z,2.28
2022-08-09T10:12:00.307Z,2.00
2022-08-09T10:14:30.514Z,2.30
2022-08-09T10:17:38.916Z,2.63
2022-08-09T10:19:45.840Z,3.45
2022-08-09T10:22:12.772Z,2.85
2022-08-09T10:24:40.351Z,2.95
2022-08-09T10:27:10.511Z,2.50
2022-08-09T10:30:48.062Z,2.55
2022-08-09T10:32:42.777Z,2.90
2022-08-09T10:35:37.980Z,2.38
2022-08-09T10:38:54.443Z,3.03
2022-08-09T10:41:20.769Z,2.70
2022-08-09T10:43:58.716Z,2.60
2022-08-09T10:46:54.660Z,3.10
2022-08-09T10:49:49.909Z,2.88
2022-08-09T10:52:42.642Z,2.80
2022-08-09T10:55:23.111Z,2.50
2022-08-09T10:57:51.897Z,2.45
2022-08-09T11:00:56.878Z,2.63
2022-08-09T11:03:49.839Z,2.20
2022-08-09T11:06:22.868Z,2.53
2022-08-09T11:08:53.930Z,2.30
2022-08-09T11:11:22.309Z,2.30
2022-08-09T11:14:28.269Z,2.45
2022-08-09T11:16:56.684Z,2.35
2022-08-09T11:20:07.969Z,2.97
2022-08-09T11:23:02.933Z,3.15
2022-08-09T11:25:47.624Z,2.88
2022-08-09T11:28:38.635Z,2.40
2022-08-09T11:31:48.803Z,2.60
2022-08-09T11:34:24.808Z,2.35
2022-08-09T11:36:52.590Z,3.00
2022-08-09T11:39:19.432Z,2.60
2022-08-09T11:41:46.789Z,2.35
2022-08-09T11:44:15.845Z,2.17
2022-08-09T11:47:00.080Z,2.83
2022-08-09T11:50:53.115Z,2.97
2022-08-09T11:53:57.780Z,2.55
2022-08-09T11:56:41.318Z,2.58
2022-08-09T11:59:10.902Z,2.35
2022-08-09T12:02:17.753Z,2.30
2022-08-09T12:04:32.385Z,2.30
2022-08-09T12:07:07.946Z,2.42
2022-08-09T12:09:36.347Z,2.50
2022-08-09T12:12:05.331Z,2.67
2022-08-09T12:14:36.937Z,2.28
2022-08-09T12:17:28.172Z,2.33
2022-08-09T12:20:00.093Z,2.22
2022-08-09T12:22:29.206Z,2.47
2022-08-09T12:25:11.037Z,2.38
2022-08-09T12:29:12.697Z,2.30
2022-08-09T12:30:36.213Z,2.22
2022-08-09T12:33:06.138Z,2.63
2022-08-09T12:35:40.085Z,2.40
2022-08-09T12:38:29.691Z,2.60
2022-08-09T12:41:05.523Z,2.40
2022-08-09T12:44:06.291Z,2.10
2022-08-09T12:46:22.769Z,2.75
2022-08-09T12:48:52.161Z,3.20
2022-08-09T12:51:52.817Z,2.40
2022-08-09T12:54:08.127Z,2.63
2022-08-09T12:56:51.279Z,2.17
2022-08-09T12:59:21.960Z,2.60
2022-08-09T13:02:04.798Z,2.40
2022-08-09T13:04:38.624Z,2.88
2022-08-09T13:07:13.786Z,2.40
2022-08-09T13:09:52.752Z,3.13
2022-08-09T13:12:27.083Z,2.50
2022-08-09T13:15:04.483Z,2.42
2022-08-09T13:18:03.341Z,2.35
2022-08-09T13:20:37.495Z,2.20
2022-08-09T13:24:16.226Z,2.45
2022-08-09T13:26:05.490Z,2.65
2022-08-09T13:28:35.496Z,2.72
2022-08-09T13:32:17.628Z,2.20
2022-08-09T13:33:54.322Z,2.10
2022-08-09T13:36:37.916Z,2.35
2022-08-09T13:41:20.787Z,2.08
2022-08-09T13:42:02.145Z,2.05
2022-08-09T13:44:30.129Z,2.28
2022-08-09T13:47:26.849Z,2.13
2022-08-09T13:49:56.025Z,2.67
2022-08-09T13:52:24.923Z,2.50
2022-08-09T13:55:00.978Z,2.38
2022-08-09T13:57:37.059Z,2.17
2022-08-09T14:00:12.110Z,1.90
2022-08-09T14:02:42.636Z,2.10
2022-08-09T14:05:58.697Z,2.33
2022-08-09T14:08:15.836Z,1.70
2022-08-09T14:10:46.277Z,2.17
2022-08-09T14:13:28.267Z,1.70
2022-08-09T14:16:10.359Z,2.35
2022-08-09T14:18:38.077Z,2.38
2022-08-09T14:21:05.967Z,1.90
2022-08-09T14:23:40.095Z,1.98
2022-08-09T14:26:13.983Z,1.40
2022-08-09T14:28:42.879Z,1.83
2022-08-09T14:31:11.455Z,1.83
2022-08-09T14:33:38.507Z,1.80
2022-08-09T14:36:20.535Z,1.83
2022-08-09T14:38:52.470Z,1.92
2022-08-09T14:41:26.644Z,1.88
2022-08-09T14:44:09.572Z,1.70
2022-08-09T14:46:56.030Z,1.73
2022-08-09T14:49:25.603Z,2.60
2022-08-09T14:51:53.226Z,1.60
2022-08-09T14:54:27.811Z,1.50
2022-08-09T14:56:58.087Z,1.50
2022-08-09T14:59:27.044Z,1.83
2022-08-09T15:01:54.289Z,1.60
2022-08-09T15:04:23.253Z,1.75
2022-08-09T15:06:51.340Z,1.25
2022-08-09T15:10:04.050Z,1.92
2022-08-09T15:12:07.827Z,1.63
2022-08-09T15:14:38.787Z,2.00
2022-08-09T15:17:06.970Z,1.70
2022-08-09T15:21:53.757Z,1.73
2022-08-09T15:22:59.884Z,1.70
2022-08-09T15:25:45.805Z,1.88
2022-08-09T15:28:27.893Z,1.55
2022-08-09T15:31:10.320Z,1.90
2022-08-09T15:34:32.803Z,2.35
2022-08-09T15:36:30.216Z,1.80
2022-08-09T15:38:57.291Z,1.60
2022-08-09T15:41:31.496Z,1.80
2022-08-09T15:43:59.677Z,2.25
2022-08-09T15:46:34.380Z,1.50
2022-08-09T15:49:21.015Z,1.55
2022-08-09T15:52:04.566Z,1.75
2022-08-09T15:54:46.091Z,2.25
2022-08-09T15:57:19.025Z,1.90
2022-08-09T16:00:02.469Z,1.92
2022-08-09T16:02:29.909Z,2.33
2022-08-09T16:04:56.901Z,2.22
2022-08-09T16:07:27.603Z,2.10
2022-08-09T16:10:02.535Z,1.95
2022-08-09T16:12:31.590Z,1.70
2022-08-09T16:14:58.636Z,1.83
2022-08-09T16:17:28.510Z,1.98
2022-08-09T16:20:04.790Z,1.70
2022-08-09T16:22:36.561Z,2.00
2022-08-09T16:25:11.154Z,1.80
2022-08-09T16:27:40.644Z,1.90
2022-08-09T16:30:15.052Z,2.00
2022-08-09T16:33:11.069Z,1.98
2022-08-09T16:35:55.961Z,1.90
2022-08-09T16:38:25.643Z,1.73
2022-08-09T16:40:52.736Z,1.27
2022-08-09T16:43:20.868Z,1.80
2022-08-09T16:45:48.147Z,1.90
2022-08-09T16:48:38.472Z,1.85
2022-08-09T16:51:13.513Z,1.83
2022-08-09T16:54:02.456Z,1.90
2022-08-09T16:56:30.798Z,1.83
2022-08-09T16:58:58.077Z,2.15
2022-08-09T17:01:27.588Z,1.63
2022-08-09T17:03:56.523Z,1.70
2022-08-09T17:06:29.043Z,1.90
2022-08-09T17:09:16.124Z,1.85
2022-08-09T17:11:48.267Z,1.90
2022-08-09T17:14:27.108Z,1.92
2022-08-09T17:16:56.974Z,2.10
2022-08-09T17:19:27.350Z,2.03
2022-08-09T17:22:14.591Z,1.90
2022-08-09T17:24:47.965Z,1.65
2022-08-09T17:27:22.415Z,1.80
2022-08-09T17:29:50.729Z,1.90
2022-08-09T17:32:20.332Z,2.22
2022-08-09T17:35:04.366Z,2.20
2022-08-09T17:38:02.290Z,2.03
2022-08-09T17:40:26.470Z,1.83
2022-08-09T17:42:59.280Z,2.10
2022-08-09T17:45:45.539Z,2.10
2022-08-09T17:48:14.508Z,2.55
2022-08-09T17:50:55.877Z,1.60
2022-08-09T17:53:32.376Z,1.67
2022-08-09T17:56:12.311Z,7.32
2022-08-09T17:58:42.742Z,2.00
2022-08-09T18:01:10.568Z,2.30
2022-08-09T18:03:50.448Z,2.25
2022-08-09T18:06:30.693Z,2.45
2022-08-09T18:09:01.669Z,2.00
2022-08-09T18:12:05.184Z,2.70
2022-08-09T18:14:27.546Z,2.08
2022-08-09T18:16:54.383Z,2.63
2022-08-09T18:20:58.320Z,1.63
2022-08-09T18:22:17.104Z,1.63
2022-08-09T18:24:47.813Z,1.90
2022-08-09T18:27:18.840Z,1.98
2022-08-09T18:30:42.603Z,1.80
2022-08-09T18:32:54.501Z,1.58
2022-08-09T18:36:00.008Z,2.47
2022-08-09T18:38:16.673Z,2.08
2022-08-09T18:40:49.014Z,2.00
2022-08-09T18:43:17.227Z,2.05
2022-08-09T18:46:49.451Z,1.85
2022-08-09T18:48:34.184Z,1.95
2022-08-09T18:51:02.869Z,2.10
2022-08-09T18:53:56.172Z,2.60
2022-08-09T18:56:27.730Z,2.38
2022-08-09T18:59:01.538Z,2.28
2022-08-09T19:01:28.746Z,2.50
2022-08-09T19:04:34.755Z,2.13
2022-08-09T19:07:17.528Z,2.38
2022-08-09T19:10:14.121Z,2.20
2022-08-09T19:12:42.596Z,2.30
2022-08-09T19:15:25.044Z,3.15
2022-08-09T19:18:33.248Z,2.08
2022-08-09T19:21:09.894Z,2.15
2022-08-09T19:24:33.390Z,2.92
2022-08-09T19:30:28.521Z,2.17
2022-08-09T19:33:18.977Z,2.15
2022-08-09T19:35:58.909Z,2.47
2022-08-09T19:38:29.013Z,1.80
2022-08-09T19:41:33.178Z,2.30
2022-08-09T19:44:07.629Z,2.15
2022-08-09T19:46:49.948Z,2.15
2022-08-09T19:50:06.678Z,2.25
2022-08-09T19:52:24.446Z,2.38
2022-08-09T19:54:57.374Z,2.03
2022-08-09T19:57:26.163Z,2.20
2022-08-09T20:00:15.097Z,2.13
2022-08-09T20:04:11.623Z,2.00
2022-08-09T20:05:46.454Z,1.95
2022-08-09T20:08:33.331Z,2.08
2022-08-09T20:11:43.236Z,2.58
2022-08-09T20:14:16.035Z,1.60
2022-08-09T20:16:55.042Z,1.83
2022-08-09T20:19:47.987Z,1.65
2022-08-09T20:22:32.116Z,2.22
2022-08-09T20:25:27.541Z,1.80
2022-08-09T20:27:56.821Z,1.70
2022-08-09T20:30:41.613Z,1.83
2022-08-09T20:33:13.566Z,2.38
2022-08-09T20:36:05.688Z,1.98
2022-08-09T20:41:34.743Z,2.38
2022-08-09T20:44:16.358Z,2.10
2022-08-09T20:47:02.001Z,2.38
2022-08-09T20:49:30.800Z,2.30
2022-08-09T20:52:02.335Z,1.83
2022-08-09T20:54:29.444Z,2.15
2022-08-09T20:56:58.603Z,2.00
2022-08-09T21:00:19.951Z,2.30
2022-08-09T21:02:27.658Z,1.83
2022-08-09T21:05:56.200Z,1.88
2022-08-09T21:07:44.309Z,2.17
2022-08-09T21:10:12.095Z,1.98
2022-08-09T21:12:39.337Z,2.10
2022-08-09T21:15:13.034Z,2.03
2022-08-09T21:18:22.820Z,2.22
2022-08-09T21:20:30.209Z,2.10
2022-08-09T21:23:12.988Z,2.30
2022-08-09T21:25:59.292Z,2.05
2022-08-09T21:28:34.977Z,1.85
2022-08-09T21:31:16.417Z,1.90
2022-08-09T21:33:50.944Z,2.28
2022-08-09T21:36:19.826Z,2.33
2022-08-09T21:38:50.841Z,1.75
2022-08-09T21:42:00.343Z,1.85
2022-08-09T21:44:11.060Z,2.33
2022-08-09T21:46:38.185Z,2.45
2022-08-09T21:49:07.470Z,2.10
2022-08-09T21:51:36.321Z,2.10
2022-08-09T21:54:12.743Z,2.33
2022-08-09T21:56:44.630Z,2.17
2022-08-09T21:59:25.594Z,1.90
2022-08-09T22:02:01.084Z,2.30
2022-08-09T22:04:55.349Z,2.25
2022-08-09T22:07:35.572Z,1.95
2022-08-09T22:10:04.735Z,2.67
2022-08-09T22:12:32.412Z,2.20
2022-08-09T22:14:59.794Z,2.55
2022-08-09T22:17:28.056Z,1.80
2022-08-09T22:20:00.627Z,2.13
2022-08-09T22:22:28.296Z,2.10
2022-08-09T22:26:06.706Z,2.53
2022-08-09T22:27:42.972Z,2.22
2022-08-09T22:30:11.322Z,2.30
2022-08-09T22:32:38.860Z,2.63
2022-08-09T22:36:02.468Z,2.40
2022-08-09T22:38:06.557Z,1.83
2022-08-09T22:40:35.302Z,2.38
2022-08-09T22:43:16.198Z,2.28
2022-08-09T22:48:15.882Z,2.50
2022-08-09T22:48:37.332Z,2.40
2022-08-09T22:51:10.913Z,2.08
2022-08-09T22:54:02.894Z,2.20
2022-08-09T22:56:33.936Z,2.20
2022-08-09T22:59:05.709Z,2.53
2022-08-09T23:01:50.737Z,2.38
2022-08-09T23:04:18.019Z,2.45
2022-08-09T23:07:03.004Z,2.42
2022-08-09T23:09:30.884Z,3.17
2022-08-09T23:12:13.913Z,2.45
2022-08-09T23:14:41.942Z,2.40
2022-08-09T23:17:10.148Z,2.58
2022-08-09T23:20:00.871Z,2.67
2022-08-09T23:22:25.404Z,2.30
2022-08-09T23:24:52.470Z,2.88
2022-08-09T23:27:19.490Z,2.67
2022-08-09T23:29:47.299Z,2.30
2022-08-09T23:32:14.545Z,2.67
2022-08-09T23:34:41.729Z,2.40
2022-08-09T23:37:09.308Z,2.55
2022-08-09T23:39:36.533Z,2.30
2022-08-09T23:42:04.072Z,2.83
2022-08-09T23:44:31.227Z,2.67
2022-08-09T23:46:59.078Z,2.28
2022-08-09T23:49:27.494Z,2.55
2022-08-09T23:51:54.724Z,2.67
2022-08-09T23:54:26.574Z,2.50
2022-08-09T23:57:06.195Z,2.42
